Time;durP1;ratioP1;P1;durP2;ratioP2;P2;SDS_P1;SDS_P2;PMS_P1;PMS_P2;Temp;Humidity;BMP_temperature;BMP_pressure;BME280_temperature;BME280_humidity;BME280_pressure;Samples;Min_cycle;Max_cycle;Signal;HPM_P1;HPM_P2
2021/03/15 00:00:08;;;;;;;10.57;4.87;;;;;;;;;;4362570;32;20234;-75
2021/03/15 00:02:34;;;;;;;8.87;5.30;;;;;;;;;;4376507;32;20151;-75
2021/03/15 00:04:59;;;;;;;13.00;5.40;;;;;;;;;;4376966;32;20190;-76
2021/03/15 00:07:24;;;;;;;16.13;6.00;;;;;;;;;;4376518;32;20131;-75
2021/03/15 00:09:50;;;;;;;22.57;7.33;;;;;;;;;;4376326;32;20273;-75
2021/03/15 00:12:15;;;;;;;17.13;7.20;;;;;;;;;;4376829;32;20547;-75
2021/03/15 00:14:40;;;;;;;17.53;7.13;;;;;;;;;;4374907;32;20167;-76
2021/03/15 00:17:05;;;;;;;14.47;7.07;;;;;;;;;;4374651;32;20171;-75
2021/03/15 00:22:35;;;;;;;17.77;9.27;;;;;;;;;;4361375;32;20154;-75
2021/03/15 00:25:00;;;;;;;16.50;9.30;;;;;;;;;;4361290;33;20177;-75
2021/03/15 00:27:25;;;;;;;17.43;8.97;;;;;;;;;;4361452;32;20174;-75
2021/03/15 00:29:51;;;;;;;18.97;8.87;;;;;;;;;;4348082;33;20167;-75
2021/03/15 00:32:17;;;;;;;17.13;8.63;;;;;;;;;;4348083;33;20162;-75
2021/03/15 00:34:42;;;;;;;21.70;10.37;;;;;;;;;;4360746;32;20135;-77
2021/03/15 00:37:11;;;;;;;20.57;8.93;;;;;;;;;;4347123;33;20171;-77
2021/03/15 00:39:36;;;;;;;18.90;9.30;;;;;;;;;;4360786;32;20202;-77
2021/03/15 00:42:01;;;;;;;21.00;9.57;;;;;;;;;;4361676;32;20161;-77
2021/03/15 00:44:26;;;;;;;21.47;9.50;;;;;;;;;;4360717;32;20253;-77
2021/03/15 00:46:52;;;;;;;13.83;7.60;;;;;;;;;;4359975;32;20163;-77
2021/03/15 00:49:28;;;;;;;19.27;7.83;;;;;;;;;;4374336;32;20167;-77
2021/03/15 00:51:53;;;;;;;20.90;7.90;;;;;;;;;;4374805;32;20158;-76
2021/03/15 00:54:21;;;;;;;15.43;6.90;;;;;;;;;;4374429;32;20217;-76
2021/03/15 00:56:46;;;;;;;12.60;6.53;;;;;;;;;;4375597;32;20264;-77
2021/03/15 00:59:11;;;;;;;14.43;5.23;;;;;;;;;;4375960;32;20143;-76
2021/03/15 01:01:37;;;;;;;10.50;5.03;;;;;;;;;;4374186;32;20167;-76
2021/03/15 01:04:02;;;;;;;12.60;5.87;;;;;;;;;;4375401;32;20138;-76
2021/03/15 01:06:27;;;;;;;13.20;5.40;;;;;;;;;;4375625;32;20209;-76
2021/03/15 01:08:52;;;;;;;14.83;5.87;;;;;;;;;;4375372;32;20164;-76
2021/03/15 01:11:18;;;;;;;12.40;5.50;;;;;;;;;;4375750;32;20161;-76
2021/03/15 01:13:43;;;;;;;11.70;4.90;;;;;;;;;;4375641;32;20146;-76
2021/03/15 01:16:08;;;;;;;12.60;5.13;;;;;;;;;;4374318;32;20216;-76
2021/03/15 01:18:34;;;;;;;11.80;5.00;;;;;;;;;;4375472;32;20139;-76
2021/03/15 01:20:59;;;;;;;12.23;4.40;;;;;;;;;;4375380;32;20147;-76
2021/03/15 01:23:24;;;;;;;15.37;4.73;;;;;;;;;;4373837;32;20182;-76
2021/03/15 01:25:50;;;;;;;8.57;4.07;;;;;;;;;;4375145;32;20196;-76
2021/03/15 01:28:16;;;;;;;11.30;5.10;;;;;;;;;;4375489;32;20233;-77
2021/03/15 01:30:42;;;;;;;11.53;4.37;;;;;;;;;;4376194;32;20540;-76
2021/03/15 01:33:17;;;;;;;;;;;;;;;;;;;;;
2021/03/15 01:35:43;;;;;;;12.13;4.17;;;;;;;;;;4375453;32;20142;-76
2021/03/15 01:38:09;;;;;;;20.87;4.63;;;;;;;;;;4374304;32;20248;-76
2021/03/15 01:40:42;;;;;;;9.80;3.77;;;;;;;;;;4375351;32;20218;-76
2021/03/15 01:43:07;;;;;;;10.70;3.70;;;;;;;;;;4375279;32;20488;-76
2021/03/15 01:45:33;;;;;;;10.10;3.53;;;;;;;;;;4374810;32;20189;-76
2021/03/15 01:47:58;;;;;;;9.30;3.10;;;;;;;;;;4376509;32;20161;-76
2021/03/15 01:50:26;;;;;;;9.63;2.87;;;;;;;;;;4361500;32;20186;-76
2021/03/15 01:52:53;;;;;;;7.80;3.20;;;;;;;;;;4361315;32;20208;-76
2021/03/15 01:55:19;;;;;;;8.67;2.87;;;;;;;;;;4375168;32;20147;-76
2021/03/15 01:57:45;;;;;;;6.60;2.77;;;;;;;;;;4361244;32;20167;-75
2021/03/15 02:00:11;;;;;;;8.03;2.70;;;;;;;;;;4361034;32;20197;-76
2021/03/15 02:02:38;;;;;;;6.37;3.00;;;;;;;;;;4374531;32;20142;-75
2021/03/15 02:05:04;;;;;;;7.37;3.37;;;;;;;;;;4375152;32;20139;-76
2021/03/15 02:07:29;;;;;;;11.87;3.93;;;;;;;;;;4374745;32;20159;-76
2021/03/15 02:09:54;;;;;;;9.77;4.07;;;;;;;;;;4361144;32;20264;-76
2021/03/15 02:12:34;;;;;;;9.83;4.13;;;;;;;;;;4375088;32;20138;-76
2021/03/15 02:15:09;;;;;;;13.63;4.90;;;;;;;;;;4374920;32;20134;-76
2021/03/15 02:17:45;;;;;;;10.97;4.43;;;;;;;;;;4375176;32;20196;-76
2021/03/15 02:20:29;;;;;;;9.33;5.00;;;;;;;;;;4361664;32;20264;-75
2021/03/15 02:23:11;;;;;;;9.40;4.63;;;;;;;;;;4361070;32;20225;-76
2021/03/15 02:25:39;;;;;;;15.83;5.00;;;;;;;;;;4361191;32;20228;-76
2021/03/15 02:28:23;;;;;;;12.10;5.20;;;;;;;;;;4361348;32;20201;-76
2021/03/15 02:31:08;;;;;;;11.23;5.00;;;;;;;;;;4375538;32;20143;-76
2021/03/15 02:33:33;;;;;;;9.77;4.50;;;;;;;;;;4374993;32;20138;-76
2021/03/15 02:36:00;;;;;;;17.53;5.10;;;;;;;;;;4360788;32;20198;-76
2021/03/15 02:38:26;;;;;;;10.57;4.50;;;;;;;;;;4374633;32;20227;-76
2021/03/15 02:40:58;;;;;;;11.57;5.00;;;;;;;;;;4361091;32;20189;-76
2021/03/15 02:43:25;;;;;;;14.93;4.70;;;;;;;;;;4361553;32;20151;-76
2021/03/15 02:45:55;;;;;;;10.87;3.47;;;;;;;;;;4375296;32;20163;-76
2021/03/15 02:48:21;;;;;;;10.80;4.27;;;;;;;;;;4374730;32;20163;-77
2021/03/15 02:50:47;;;;;;;12.77;4.70;;;;;;;;;;4364103;32;20216;-76
2021/03/15 02:53:15;;;;;;;9.43;4.03;;;;;;;;;;4363841;32;20166;-77
2021/03/15 02:55:41;;;;;;;13.47;4.47;;;;;;;;;;4377287;32;20143;-77
2021/03/15 02:58:07;;;;;;;14.57;5.30;;;;;;;;;;4363547;32;20531;-77
2021/03/15 03:00:33;;;;;;;12.37;3.80;;;;;;;;;;4377096;32;20142;-77
2021/03/15 03:02:59;;;;;;;10.57;3.77;;;;;;;;;;4377995;32;20138;-76
2021/03/15 03:05:24;;;;;;;14.97;4.87;;;;;;;;;;4364028;32;20166;-77
2021/03/15 03:07:51;;;;;;;12.33;4.27;;;;;;;;;;4377368;32;20173;-77
2021/03/15 03:10:17;;;;;;;13.03;4.17;;;;;;;;;;4376862;32;20599;-77
2021/03/15 03:12:43;;;;;;;11.07;4.83;;;;;;;;;;4364191;32;20170;-77
2021/03/15 03:15:10;;;;;;;8.33;3.63;;;;;;;;;;4363597;32;20157;-76
2021/03/15 03:17:39;;;;;;;16.63;4.13;;;;;;;;;;4363111;32;20225;-77
2021/03/15 03:20:06;;;;;;;13.73;4.40;;;;;;;;;;4365212;32;20170;-78
2021/03/15 03:22:32;;;;;;;12.80;4.10;;;;;;;;;;4376985;32;20154;-78
2021/03/15 03:24:58;;;;;;;8.47;3.80;;;;;;;;;;4363398;32;20166;-78
2021/03/15 03:27:23;;;;;;;14.37;4.10;;;;;;;;;;4363100;32;20167;-78
2021/03/15 03:29:48;;;;;;;12.77;4.37;;;;;;;;;;4363071;32;20571;-78
2021/03/15 03:32:15;;;;;;;17.57;3.93;;;;;;;;;;4363059;32;20166;-77
2021/03/15 03:34:40;;;;;;;15.97;4.67;;;;;;;;;;4363270;32;20228;-78
2021/03/15 03:37:06;;;;;;;12.77;4.27;;;;;;;;;;4377076;32;20162;-78
2021/03/15 03:39:31;;;;;;;16.43;4.63;;;;;;;;;;4378689;32;20218;-78
2021/03/15 03:41:56;;;;;;;20.17;4.77;;;;;;;;;;4377267;32;20139;-79
2021/03/15 03:44:21;;;;;;;12.80;4.37;;;;;;;;;;4376926;32;20135;-79
2021/03/15 03:46:46;;;;;;;14.00;4.83;;;;;;;;;;4377505;32;20231;-79
2021/03/15 03:49:12;;;;;;;18.57;4.80;;;;;;;;;;4376376;32;20169;-79
2021/03/15 03:51:40;;;;;;;13.87;4.37;;;;;;;;;;4375859;32;20193;-79
2021/03/15 03:54:15;;;;;;;11.93;5.03;;;;;;;;;;4361942;32;20155;-79
2021/03/15 03:56:51;;;;;;;14.13;4.90;;;;;;;;;;4347977;33;20163;-80
2021/03/15 03:59:18;;;;;;;16.50;5.50;;;;;;;;;;4363102;32;20583;-79
2021/03/15 04:01:48;;;;;;;10.27;4.53;;;;;;;;;;4361433;32;20157;-80
2021/03/15 04:04:15;;;;;;;12.43;4.53;;;;;;;;;;4348027;33;20171;-79
2021/03/15 04:06:41;;;;;;;13.57;4.73;;;;;;;;;;4361647;32;20139;-79
2021/03/15 04:09:12;;;;;;;13.43;5.33;;;;;;;;;;4362006;32;20312;-80
2021/03/15 04:11:41;;;;;;;12.57;4.87;;;;;;;;;;4347589;33;20277;-80
2021/03/15 04:14:06;;;;;;;12.37;5.10;;;;;;;;;;4361459;32;20204;-81
2021/03/15 04:16:32;;;;;;;12.97;5.43;;;;;;;;;;4360984;33;20136;-80
2021/03/15 04:18:59;;;;;;;13.10;4.43;;;;;;;;;;4347839;33;20202;-80
2021/03/15 04:21:26;;;;;;;17.67;5.03;;;;;;;;;;4348708;33;20474;-79
2021/03/15 04:23:53;;;;;;;12.23;4.67;;;;;;;;;;4362111;32;20166;-80
2021/03/15 04:26:22;;;;;;;13.67;5.07;;;;;;;;;;4360740;32;20194;-80
2021/03/15 04:28:57;;;;;;;9.20;4.10;;;;;;;;;;4362813;32;20180;-79
2021/03/15 04:31:23;;;;;;;9.37;4.43;;;;;;;;;;4361624;32;20127;-79
2021/03/15 04:33:49;;;;;;;11.80;4.60;;;;;;;;;;4360760;33;20143;-78
2021/03/15 04:36:15;;;;;;;10.30;4.63;;;;;;;;;;4347369;33;20159;-79
2021/03/15 04:38:41;;;;;;;17.10;4.83;;;;;;;;;;4347061;33;20175;-79
2021/03/15 04:41:07;;;;;;;11.47;4.33;;;;;;;;;;4360788;32;20479;-78
2021/03/15 04:43:32;;;;;;;11.73;4.97;;;;;;;;;;4347207;33;20194;-80
2021/03/15 04:45:57;;;;;;;18.40;5.27;;;;;;;;;;4347487;33;20190;-78
2021/03/15 04:48:27;;;;;;;14.23;5.20;;;;;;;;;;4347810;33;20167;-79
2021/03/15 04:50:54;;;;;;;16.87;4.70;;;;;;;;;;4347005;33;20162;-78
2021/03/15 04:53:20;;;;;;;14.90;4.53;;;;;;;;;;4347173;33;20175;-79
2021/03/15 04:55:45;;;;;;;10.47;3.50;;;;;;;;;;4347256;33;20645;-80
2021/03/15 04:58:12;;;;;;;12.07;4.40;;;;;;;;;;4347687;33;20588;-79
2021/03/15 05:00:38;;;;;;;9.00;3.60;;;;;;;;;;4361520;32;20182;-79
2021/03/15 05:03:05;;;;;;;12.13;3.07;;;;;;;;;;4360806;32;20143;-79
2021/03/15 05:05:31;;;;;;;10.70;4.13;;;;;;;;;;4360382;32;20522;-78
2021/03/15 05:07:56;;;;;;;13.00;2.90;;;;;;;;;;4360558;33;20194;-79
2021/03/15 05:10:21;;;;;;;12.47;3.37;;;;;;;;;;4346950;33;20209;-80
2021/03/15 05:12:47;;;;;;;10.23;2.87;;;;;;;;;;4359652;32;20211;-79
2021/03/15 05:15:13;;;;;;;12.27;2.87;;;;;;;;;;4360656;32;20198;-79
2021/03/15 05:17:38;;;;;;;12.00;2.40;;;;;;;;;;4360443;32;20189;-79
2021/03/15 05:20:08;;;;;;;12.57;2.47;;;;;;;;;;4346653;33;20162;-79
2021/03/15 05:22:35;;;;;;;8.63;2.50;;;;;;;;;;4346495;33;20226;-77
2021/03/15 05:25:01;;;;;;;13.50;2.70;;;;;;;;;;4346475;33;20163;-80
2021/03/15 05:27:27;;;;;;;9.10;2.60;;;;;;;;;;4360871;32;20218;-80
2021/03/15 05:29:53;;;;;;;13.87;2.70;;;;;;;;;;4347190;33;20162;-79
2021/03/15 05:32:19;;;;;;;9.07;2.20;;;;;;;;;;4346398;33;20540;-80
2021/03/15 05:34:44;;;;;;;7.47;2.27;;;;;;;;;;4360308;33;20147;-80
2021/03/15 05:37:10;;;;;;;5.10;2.40;;;;;;;;;;4361229;32;20186;-80
2021/03/15 05:39:35;;;;;;;10.37;2.70;;;;;;;;;;4347066;33;20206;-80
2021/03/15 05:42:14;;;;;;;7.77;2.27;;;;;;;;;;4346768;33;20246;-77
2021/03/15 05:44:48;;;;;;;12.90;2.33;;;;;;;;;;4346871;33;20269;-77
2021/03/15 05:47:40;;;;;;;10.87;2.23;;;;;;;;;;4346170;33;20163;-79
2021/03/15 05:50:24;;;;;;;10.40;2.27;;;;;;;;;;4346928;33;20158;-80
2021/03/15 05:53:08;;;;;;;13.37;2.10;;;;;;;;;;4346547;33;20694;-79
2021/03/15 05:55:33;;;;;;;8.80;2.17;;;;;;;;;;4346390;33;20580;-78
2021/03/15 05:58:17;;;;;;;8.07;2.10;;;;;;;;;;4346043;33;20174;-80
2021/03/15 06:01:03;;;;;;;17.50;2.93;;;;;;;;;;4360160;33;20170;-80
2021/03/15 06:03:40;;;;;;;10.53;2.30;;;;;;;;;;4346301;33;20182;-78
2021/03/15 06:06:07;;;;;;;14.20;2.77;;;;;;;;;;4359933;33;20542;-81
2021/03/15 06:08:49;;;;;;;5.53;1.93;;;;;;;;;;4346082;33;20548;-81
2021/03/15 06:11:16;;;;;;;14.93;2.67;;;;;;;;;;4346033;33;20166;-81
2021/03/15 06:13:42;;;;;;;12.23;2.20;;;;;;;;;;4360277;33;20135;-82
2021/03/15 06:16:08;;;;;;;16.43;2.87;;;;;;;;;;4346459;33;20174;-81
2021/03/15 06:18:33;;;;;;;14.20;2.80;;;;;;;;;;4347001;33;20182;-81
2021/03/15 06:20:59;;;;;;;16.03;2.93;;;;;;;;;;4345798;33;20174;-80
2021/03/15 06:23:25;;;;;;;13.10;2.70;;;;;;;;;;4360111;32;20198;-81
2021/03/15 06:25:51;;;;;;;22.33;3.17;;;;;;;;;;4348953;33;20501;-80
2021/03/15 06:28:16;;;;;;;17.60;2.63;;;;;;;;;;4349043;33;20194;-81
2021/03/15 06:30:42;;;;;;;14.90;2.77;;;;;;;;;;4349582;33;20162;-80
2021/03/15 06:33:08;;;;;;;14.10;2.63;;;;;;;;;;4349198;33;20167;-80
2021/03/15 06:35:49;;;;;;;18.97;2.80;;;;;;;;;;4362405;32;20552;-80
2021/03/15 06:38:17;;;;;;;21.50;3.27;;;;;;;;;;4348695;33;20193;-80
2021/03/15 06:40:43;;;;;;;21.30;3.23;;;;;;;;;;4349122;33;20249;-80
2021/03/15 06:43:14;;;;;;;21.47;2.93;;;;;;;;;;4348631;33;20166;-81
2021/03/15 06:45:39;;;;;;;17.77;3.17;;;;;;;;;;4348474;33;20186;-80
2021/03/15 06:48:04;;;;;;;16.53;3.50;;;;;;;;;;4348912;33;20167;-80
2021/03/15 06:50:30;;;;;;;17.27;2.53;;;;;;;;;;4348525;33;20522;-80
2021/03/15 06:52:56;;;;;;;23.50;3.20;;;;;;;;;;4348633;33;20198;-80
2021/03/15 06:55:23;;;;;;;18.33;3.37;;;;;;;;;;4362666;32;20479;-81
2021/03/15 06:57:48;;;;;;;15.43;2.80;;;;;;;;;;4348862;33;20185;-81
2021/03/15 07:00:16;;;;;;;19.10;3.00;;;;;;;;;;4363686;32;20147;-80
2021/03/15 07:02:41;;;;;;;19.40;2.40;;;;;;;;;;4362509;32;20193;-81
2021/03/15 07:05:06;;;;;;;17.27;1.97;;;;;;;;;;4349006;33;20163;-79
2021/03/15 07:07:32;;;;;;;17.37;3.17;;;;;;;;;;4348256;33;20167;-80
2021/03/15 07:09:57;;;;;;;18.90;2.77;;;;;;;;;;4348579;33;20197;-80
2021/03/15 07:12:24;;;;;;;20.80;2.93;;;;;;;;;;4348224;33;20586;-80
2021/03/15 07:14:49;;;;;;;20.23;2.77;;;;;;;;;;4347681;33;20166;-78
2021/03/15 07:17:25;;;;;;;15.27;2.93;;;;;;;;;;4362017;33;20487;-79
2021/03/15 07:19:56;;;;;;;15.83;2.33;;;;;;;;;;4348388;33;20216;-78
2021/03/15 07:22:26;;;;;;;19.47;2.10;;;;;;;;;;4347945;33;20166;-79
2021/03/15 07:25:01;;;;;;;10.43;2.40;;;;;;;;;;4348576;33;20175;-81
2021/03/15 07:27:30;;;;;;;11.97;2.23;;;;;;;;;;4348038;33;20319;-78
2021/03/15 07:29:55;;;;;;;18.30;2.20;;;;;;;;;;4349082;32;20493;-80
2021/03/15 07:32:36;;;;;;;9.53;2.43;;;;;;;;;;4347790;33;20193;-79
2021/03/15 07:35:18;;;;;;;16.10;2.53;;;;;;;;;;4360759;32;20170;-79
2021/03/15 07:37:43;;;;;;;12.70;2.13;;;;;;;;;;4351951;32;20171;-77
2021/03/15 07:40:09;;;;;;;13.20;2.50;;;;;;;;;;4359596;33;20170;-80
2021/03/15 07:42:34;;;;;;;12.83;2.50;;;;;;;;;;4360073;32;20166;-80
2021/03/15 07:45:00;;;;;;;20.20;3.50;;;;;;;;;;4359718;33;20595;-78
2021/03/15 07:47:38;;;;;;;19.87;2.93;;;;;;;;;;4360765;32;20527;-80
2021/03/15 07:50:03;;;;;;;15.23;2.23;;;;;;;;;;4358477;32;20219;-79
2021/03/15 07:52:49;;;;;;;14.93;2.30;;;;;;;;;;4347119;33;20171;-79
2021/03/15 07:55:31;;;;;;;16.40;2.03;;;;;;;;;;4345071;33;20171;-79
2021/03/15 07:58:03;;;;;;;14.80;2.10;;;;;;;;;;4351331;32;20194;-79
2021/03/15 08:00:31;;;;;;;14.13;3.27;;;;;;;;;;4361189;32;20506;-79
2021/03/15 08:02:57;;;;;;;9.13;1.90;;;;;;;;;;4359681;32;20162;-78
2021/03/15 08:05:25;;;;;;;11.37;2.03;;;;;;;;;;4360831;32;20173;-77
2021/03/15 08:08:08;;;;;;;12.90;2.40;;;;;;;;;;4359681;32;20155;-74
2021/03/15 08:10:34;;;;;;;9.43;1.97;;;;;;;;;;4361525;32;20206;-73
2021/03/15 08:13:00;;;;;;;13.40;2.10;;;;;;;;;;4359418;32;20596;-75
2021/03/15 08:15:28;;;;;;;6.53;1.53;;;;;;;;;;4360885;32;20135;-79
2021/03/15 08:18:09;;;;;;;8.50;1.50;;;;;;;;;;4359873;32;20167;-79
2021/03/15 08:20:45;;;;;;;7.73;1.70;;;;;;;;;;4361123;32;20472;-76
2021/03/15 08:23:41;;;;;;;9.87;1.80;;;;;;;;;;4361717;32;20162;-80
2021/03/15 08:26:31;;;;;;;12.50;2.03;;;;;;;;;;4340878;32;20185;-79
2021/03/15 08:29:00;;;;;;;12.73;1.90;;;;;;;;;;4361121;32;20302;-79
2021/03/15 08:31:40;;;;;;;11.93;1.97;;;;;;;;;;4359562;32;20226;-77
2021/03/15 08:34:15;;;;;;;15.33;2.10;;;;;;;;;;4358690;33;20170;-77
2021/03/15 08:36:41;;;;;;;10.87;1.70;;;;;;;;;;4360743;32;20138;-73
2021/03/15 08:39:36;;;;;;;9.63;2.07;;;;;;;;;;4359295;32;20202;-77
2021/03/15 08:42:17;;;;;;;12.03;1.87;;;;;;;;;;4362005;32;20162;-77
2021/03/15 08:44:46;;;;;;;8.67;1.13;;;;;;;;;;4375101;32;20640;-77
2021/03/15 08:47:12;;;;;;;5.87;1.50;;;;;;;;;;4361961;32;20158;-77
2021/03/15 08:49:42;;;;;;;6.10;1.40;;;;;;;;;;4362250;32;20159;-77
2021/03/15 08:52:13;;;;;;;11.03;1.63;;;;;;;;;;4361364;32;20457;-79
2021/03/15 08:54:47;;;;;;;9.57;1.47;;;;;;;;;;4375288;32;20173;-78
2021/03/15 08:57:32;;;;;;;8.90;1.70;;;;;;;;;;4361029;32;20162;-79
2021/03/15 08:59:58;;;;;;;13.50;2.00;;;;;;;;;;4361086;32;20167;-76
2021/03/15 09:02:36;;;;;;;15.13;2.13;;;;;;;;;;4375629;32;20463;-79
2021/03/15 09:05:21;;;;;;;12.87;1.77;;;;;;;;;;4361589;32;20189;-78
2021/03/15 09:07:56;;;;;;;17.13;2.13;;;;;;;;;;4361546;32;20221;-79
2021/03/15 09:10:30;;;;;;;8.27;1.60;;;;;;;;;;4374992;32;20146;-79
2021/03/15 09:13:10;;;;;;;12.97;2.10;;;;;;;;;;4361238;32;20231;-78
2021/03/15 09:15:42;;;;;;;13.37;2.07;;;;;;;;;;4373608;32;20560;-79
2021/03/15 09:18:28;;;;;;;7.30;1.20;;;;;;;;;;4371101;32;20181;-80
2021/03/15 09:21:00;;;;;;;15.30;2.30;;;;;;;;;;4360616;32;20583;-79
2021/03/15 09:23:30;;;;;;;14.83;1.67;;;;;;;;;;4361574;32;20162;-81
2021/03/15 09:29:04;;;;;;;6.70;1.40;;;;;;;;;;4367222;32;20165;-81
2021/03/15 09:31:50;;;;;;;12.07;1.60;;;;;;;;;;4355498;32;20175;-80
2021/03/15 09:34:15;;;;;;;6.33;1.30;;;;;;;;;;4356877;33;20167;-78
2021/03/15 09:36:43;;;;;;;8.70;1.57;;;;;;;;;;4360793;32;20193;-79
2021/03/15 09:39:09;;;;;;;11.83;1.80;;;;;;;;;;4361888;32;20163;-81
2021/03/15 09:41:34;;;;;;;9.87;2.27;;;;;;;;;;4361137;32;20189;-79
2021/03/15 09:44:12;;;;;;;8.67;1.43;;;;;;;;;;4360741;32;20238;-78
2021/03/15 09:46:43;;;;;;;9.67;1.20;;;;;;;;;;4359869;32;20261;-79
2021/03/15 09:49:08;;;;;;;8.77;1.60;;;;;;;;;;4360227;32;20193;-78
2021/03/15 09:51:33;;;;;;;8.60;1.70;;;;;;;;;;4360724;32;20759;-80
2021/03/15 09:53:58;;;;;;;9.53;1.93;;;;;;;;;;4374683;32;20229;-79
2021/03/15 09:56:24;;;;;;;6.93;1.20;;;;;;;;;;4374428;32;20206;-77
2021/03/15 09:58:49;;;;;;;9.23;1.33;;;;;;;;;;4369712;32;20151;-76
2021/03/15 10:01:27;;;;;;;8.47;1.20;;;;;;;;;;4337202;33;20245;-79
2021/03/15 10:03:53;;;;;;;6.03;1.57;;;;;;;;;;4331554;33;20159;-79
2021/03/15 10:06:19;;;;;;;6.97;1.37;;;;;;;;;;4345214;33;20563;-74
2021/03/15 10:08:48;;;;;;;13.23;2.27;;;;;;;;;;4337293;33;20193;-80
2021/03/15 10:11:14;;;;;;;12.53;1.67;;;;;;;;;;4360047;33;20140;-77
2021/03/15 10:13:39;;;;;;;6.03;1.10;;;;;;;;;;4346141;33;20185;-78
2021/03/15 10:16:05;;;;;;;9.00;1.47;;;;;;;;;;4345738;33;20197;-79
2021/03/15 10:18:31;;;;;;;9.93;1.50;;;;;;;;;;4345377;33;20219;-76
2021/03/15 10:20:56;;;;;;;11.47;1.53;;;;;;;;;;4336012;33;20635;-79
2021/03/15 10:23:22;;;;;;;8.07;1.40;;;;;;;;;;4338820;33;20220;-77
2021/03/15 10:25:59;;;;;;;7.47;1.40;;;;;;;;;;4329239;33;20224;-78
2021/03/15 10:28:25;;;;;;;8.13;1.33;;;;;;;;;;4345785;33;20162;-78
2021/03/15 10:30:50;;;;;;;7.57;1.30;;;;;;;;;;4346398;33;20194;-76
2021/03/15 10:33:19;;;;;;;7.07;1.30;;;;;;;;;;4345950;33;20554;-77
2021/03/15 10:35:44;;;;;;;7.37;1.10;;;;;;;;;;4345976;33;20300;-78
2021/03/15 10:38:10;;;;;;;9.10;1.40;;;;;;;;;;4355024;32;20546;-78
2021/03/15 10:40:35;;;;;;;5.80;1.50;;;;;;;;;;4360514;32;20163;-76
2021/03/15 10:43:01;;;;;;;7.50;1.37;;;;;;;;;;4360410;32;20217;-78
2021/03/15 10:45:27;;;;;;;4.43;1.17;;;;;;;;;;4374259;32;20228;-78
2021/03/15 10:48:04;;;;;;;9.37;1.03;;;;;;;;;;4373852;32;20139;-77
2021/03/15 10:50:29;;;;;;;7.87;1.60;;;;;;;;;;4360296;32;20208;-80
2021/03/15 10:52:55;;;;;;;10.57;1.60;;;;;;;;;;4373705;32;20556;-79
2021/03/15 10:55:21;;;;;;;9.60;1.60;;;;;;;;;;4360286;32;20265;-78
2021/03/15 10:58:00;;;;;;;8.77;1.23;;;;;;;;;;4360415;32;20282;-75
2021/03/15 11:00:26;;;;;;;6.10;1.33;;;;;;;;;;4373811;32;20147;-78
2021/03/15 11:02:51;;;;;;;9.95;1.83;;;;;;;;;;4373881;32;20196;-77
2021/03/15 11:05:16;;;;;;;13.30;1.87;;;;;;;;;;4374503;32;20150;-79
2021/03/15 11:07:42;;;;;;;10.15;1.35;;;;;;;;;;4360002;32;20297;-76
2021/03/15 11:10:12;;;;;;;11.50;1.60;;;;;;;;;;4361234;32;20185;-76
2021/03/15 11:13:10;;;;;;;10.13;1.70;;;;;;;;;;4376720;32;20135;-76
2021/03/15 11:15:37;;;;;;;9.57;1.60;;;;;;;;;;4330449;32;20540;-77
2021/03/15 11:18:07;;;;;;;4.93;1.40;;;;;;;;;;4362654;32;20189;-77
2021/03/15 11:20:34;;;;;;;7.15;1.50;;;;;;;;;;4375611;32;20414;-78
2021/03/15 11:23:00;;;;;;;8.68;1.52;;;;;;;;;;4362273;32;20355;-77
2021/03/15 11:25:27;;;;;;;4.70;0.85;;;;;;;;;;4375720;32;20237;-78
2021/03/15 11:27:52;;;;;;;9.38;1.48;;;;;;;;;;4362274;32;20170;-76
2021/03/15 11:30:19;;;;;;;6.60;1.52;;;;;;;;;;4375228;32;20184;-75
2021/03/15 11:32:45;;;;;;;8.67;1.27;;;;;;;;;;4361332;32;20169;-75
2021/03/15 11:35:17;;;;;;;12.10;1.83;;;;;;;;;;4373889;32;20220;-76
2021/03/15 11:37:46;;;;;;;6.65;1.02;;;;;;;;;;4362210;32;20209;-75
2021/03/15 11:40:12;;;;;;;10.93;1.30;;;;;;;;;;4361570;32;20204;-75
2021/03/15 11:42:38;;;;;;;4.78;1.15;;;;;;;;;;4375555;32;20150;-75
2021/03/15 11:45:03;;;;;;;7.07;1.17;;;;;;;;;;4362791;32;20238;-75
2021/03/15 11:47:29;;;;;;;3.72;1.17;;;;;;;;;;4376275;32;20578;-74
2021/03/15 11:49:54;;;;;;;6.82;1.58;;;;;;;;;;4374948;32;20182;-76
2021/03/15 11:52:25;;;;;;;10.93;1.65;;;;;;;;;;4362385;32;20208;-76
2021/03/15 11:54:50;;;;;;;8.07;1.42;;;;;;;;;;4362527;32;20162;-76
2021/03/15 11:57:16;;;;;;;10.67;1.80;;;;;;;;;;4361832;32;20699;-75
2021/03/15 11:59:41;;;;;;;8.38;1.52;;;;;;;;;;4375478;32;20205;-73
2021/03/15 12:02:06;;;;;;;7.50;1.53;;;;;;;;;;4362418;32;20417;-76
2021/03/15 12:04:31;;;;;;;10.25;1.83;;;;;;;;;;4362065;32;20288;-77
2021/03/15 12:06:56;;;;;;;11.52;1.48;;;;;;;;;;4375150;32;20472;-78
2021/03/15 12:09:22;;;;;;;12.57;2.12;;;;;;;;;;4375138;32;20135;-74
2021/03/15 12:11:47;;;;;;;13.35;1.98;;;;;;;;;;4375729;32;20189;-76
2021/03/15 12:14:12;;;;;;;14.10;1.87;;;;;;;;;;4361646;32;20602;-75
2021/03/15 12:16:37;;;;;;;15.07;2.08;;;;;;;;;;4375459;32;20479;-75
2021/03/15 12:19:02;;;;;;;7.12;1.35;;;;;;;;;;4373556;32;20171;-77
2021/03/15 12:21:27;;;;;;;13.55;1.73;;;;;;;;;;4366948;32;20173;-74
2021/03/15 12:23:53;;;;;;;10.63;2.03;;;;;;;;;;4341615;32;20281;-74
2021/03/15 12:26:19;;;;;;;9.60;1.98;;;;;;;;;;4356477;32;20171;-76
2021/03/15 12:28:44;;;;;;;10.27;1.70;;;;;;;;;;4361787;32;20299;-75
2021/03/15 12:31:10;;;;;;;10.43;1.58;;;;;;;;;;4363690;32;20607;-75
2021/03/15 12:33:35;;;;;;;8.95;1.65;;;;;;;;;;4374914;32;20540;-75
2021/03/15 12:36:00;;;;;;;8.30;1.95;;;;;;;;;;4375305;32;20196;-77
2021/03/15 12:38:25;;;;;;;13.18;1.60;;;;;;;;;;4361044;32;20318;-75
2021/03/15 12:40:51;;;;;;;9.67;1.30;;;;;;;;;;4361630;32;20504;-77
2021/03/15 12:43:16;;;;;;;11.15;1.98;;;;;;;;;;4362317;32;20233;-77
2021/03/15 12:45:41;;;;;;;7.23;1.30;;;;;;;;;;4362141;32;20607;-76
2021/03/15 12:48:07;;;;;;;9.73;1.60;;;;;;;;;;4374863;32;20202;-75
2021/03/15 12:50:32;;;;;;;11.93;2.03;;;;;;;;;;4362717;32;20166;-76
2021/03/15 12:52:57;;;;;;;11.68;1.85;;;;;;;;;;4360822;32;20213;-79
2021/03/15 12:55:22;;;;;;;9.13;1.30;;;;;;;;;;4362219;32;20167;-78
2021/03/15 12:57:47;;;;;;;15.70;2.00;;;;;;;;;;4360875;32;20171;-78
2021/03/15 13:00:13;;;;;;;16.15;2.35;;;;;;;;;;4360763;32;20170;-78
2021/03/15 13:02:39;;;;;;;6.20;1.52;;;;;;;;;;4373865;32;20243;-79
2021/03/15 13:05:05;;;;;;;10.82;1.87;;;;;;;;;;4372196;32;20223;-78
2021/03/15 13:07:30;;;;;;;10.55;1.83;;;;;;;;;;4366377;32;20487;-77
2021/03/15 13:09:55;;;;;;;10.00;1.90;;;;;;;;;;4360761;32;20222;-75
2021/03/15 13:12:20;;;;;;;13.27;1.83;;;;;;;;;;4360581;32;20228;-77
2021/03/15 13:14:45;;;;;;;8.20;1.67;;;;;;;;;;4374997;32;20689;-76
2021/03/15 13:17:11;;;;;;;10.53;1.50;;;;;;;;;;4361162;32;20275;-79
2021/03/15 13:19:42;;;;;;;10.43;1.10;;;;;;;;;;4372437;32;20244;-81
2021/03/15 13:22:07;;;;;;;7.87;1.00;;;;;;;;;;4373408;32;20197;-78
2021/03/15 13:24:32;;;;;;;6.43;0.90;;;;;;;;;;4361823;32;20187;-75
2021/03/15 13:26:58;;;;;;;10.73;1.40;;;;;;;;;;4375165;32;20143;-77
2021/03/15 13:29:23;;;;;;;4.10;1.20;;;;;;;;;;4372834;32;20175;-74
2021/03/15 13:31:48;;;;;;;11.60;1.57;;;;;;;;;;4363563;32;20632;-74
2021/03/15 13:34:13;;;;;;;12.50;2.03;;;;;;;;;;4374547;32;20185;-77
2021/03/15 13:36:38;;;;;;;16.03;2.03;;;;;;;;;;4361013;32;20189;-75
2021/03/15 13:39:04;;;;;;;16.70;2.27;;;;;;;;;;4360521;32;20171;-76
2021/03/15 13:41:38;;;;;;;16.50;1.93;;;;;;;;;;4374509;32;20437;-78
2021/03/15 13:44:03;;;;;;;15.77;2.27;;;;;;;;;;4361243;32;20313;-77
2021/03/15 13:46:28;;;;;;;16.33;2.80;;;;;;;;;;4362118;32;20170;-78
2021/03/15 13:48:54;;;;;;;16.83;2.80;;;;;;;;;;4360623;32;20163;-77
2021/03/15 13:51:19;;;;;;;13.17;2.00;;;;;;;;;;4374489;32;20135;-80
2021/03/15 13:53:45;;;;;;;16.03;2.47;;;;;;;;;;4360698;32;20261;-78
2021/03/15 13:56:10;;;;;;;13.10;1.77;;;;;;;;;;4345619;32;20525;-77
2021/03/15 13:58:36;;;;;;;13.93;2.00;;;;;;;;;;4358345;32;20186;-78
2021/03/15 14:01:01;;;;;;;17.83;2.83;;;;;;;;;;4345474;33;20189;-78
2021/03/15 14:03:27;;;;;;;22.50;2.40;;;;;;;;;;4359915;32;20194;-79
2021/03/15 14:05:52;;;;;;;17.20;2.20;;;;;;;;;;4346420;33;20556;-75
2021/03/15 14:08:18;;;;;;;16.20;2.87;;;;;;;;;;4346299;33;20166;-77
2021/03/15 14:10:43;;;;;;;11.02;2.22;;;;;;;;;;4346380;33;20213;-77
2021/03/15 14:13:08;;;;;;;14.07;1.90;;;;;;;;;;4358442;32;20205;-77
2021/03/15 14:15:34;;;;;;;14.63;2.00;;;;;;;;;;4341801;33;20170;-76
2021/03/15 14:17:59;;;;;;;12.57;2.37;;;;;;;;;;4344727;33;20170;-78
2021/03/15 14:20:24;;;;;;;18.25;2.75;;;;;;;;;;4365589;32;20154;-77
2021/03/15 14:22:49;;;;;;;9.93;1.98;;;;;;;;;;4361013;32;20587;-74
2021/03/15 14:25:16;;;;;;;9.67;2.50;;;;;;;;;;4373730;32;20324;-79
2021/03/15 14:27:41;;;;;;;13.20;2.43;;;;;;;;;;4358620;33;20143;-76
2021/03/15 14:30:07;;;;;;;11.73;1.83;;;;;;;;;;4352672;32;20216;-76
2021/03/15 14:32:33;;;;;;;15.27;3.00;;;;;;;;;;4335623;33;20200;-78
2021/03/15 14:34:58;;;;;;;13.43;1.93;;;;;;;;;;4325293;32;20214;-77
2021/03/15 14:37:23;;;;;;;5.60;1.53;;;;;;;;;;4368471;32;20170;-74
2021/03/15 14:39:48;;;;;;;10.27;2.07;;;;;;;;;;4374705;32;20453;-75
2021/03/15 14:42:13;;;;;;;10.98;1.90;;;;;;;;;;4374304;32;20437;-77
2021/03/15 14:44:39;;;;;;;14.60;2.00;;;;;;;;;;4374269;32;20254;-79
2021/03/15 14:47:04;;;;;;;15.93;2.43;;;;;;;;;;4376672;32;20443;-78